Time;durP1;ratioP1;P1;durP2;ratioP2;P2;SDS_P1;SDS_P2;PMS_P1;PMS_P2;Temp;Humidity;BMP_temperature;BMP_pressure;BME280_temperature;BME280_humidity;BME280_pressure;Samples;Min_cycle;Max_cycle;Signal;HPM_P1;HPM_P2
2023/04/01 00:01:54;;;;;;;259.65;25.73;;;;;;;8.20;100.00;99122.88;5072229;28;20446;-80
2023/04/01 00:04:20;;;;;;;240.77;23.88;;;;;;;8.17;100.00;99131.34;5083423;28;20024;-79
2023/04/01 00:06:47;;;;;;;209.38;19.92;;;;;;;8.18;100.00;99133.00;5085051;28;20182;-79
2023/04/01 00:09:12;;;;;;;196.75;18.23;;;;;;;8.16;100.00;99129.69;5083282;28;20016;-80
2023/04/01 00:11:38;;;;;;;208.98;21.42;;;;;;;8.14;100.00;99137.94;5080903;28;20017;-79
2023/04/01 00:14:04;;;;;;;159.75;17.17;;;;;;;8.14;100.00;99136.09;5078596;28;20357;-81
2023/04/01 00:16:29;;;;;;;168.52;22.70;;;;;;;8.14;100.00;99135.28;5078087;28;20156;-80
2023/04/01 00:18:55;;;;;;;162.82;18.42;;;;;;;8.11;100.00;99133.81;5078034;28;20047;-82
2023/04/01 00:21:22;;;;;;;174.60;19.92;;;;;;;8.13;100.00;99142.47;5078410;28;20064;-80
2023/04/01 00:23:48;;;;;;;154.20;20.02;;;;;;;8.11;100.00;99141.88;5079016;28;20066;-80
2023/04/01 00:26:14;;;;;;;161.75;21.83;;;;;;;8.14;100.00;99144.13;5079604;28;20028;-81
2023/04/01 00:28:40;;;;;;;211.90;22.75;;;;;;;8.10;100.00;99140.19;5078796;28;20032;-81
2023/04/01 00:31:10;;;;;;;214.27;24.58;;;;;;;8.10;100.00;99156.28;5078983;28;20031;-81
2023/04/01 00:33:35;;;;;;;232.98;23.13;;;;;;;8.09;100.00;99149.28;5080213;28;20358;-81
2023/04/01 00:36:11;;;;;;;257.50;26.02;;;;;;;8.07;100.00;99151.34;5083118;28;20084;-80
2023/04/01 00:38:37;;;;;;;231.70;25.15;;;;;;;8.08;100.00;99157.50;5085001;28;20039;-80
2023/04/01 00:41:02;;;;;;;249.02;24.48;;;;;;;8.10;100.00;99155.47;5074462;28;20435;-80
2023/04/01 00:43:28;;;;;;;205.10;20.10;;;;;;;8.05;100.00;99153.38;5081080;28;20048;-80
2023/04/01 00:45:53;;;;;;;198.00;21.73;;;;;;;8.09;100.00;99165.34;5080821;28;20028;-81
2023/04/01 00:48:26;;;;;;;191.82;22.45;;;;;;;8.09;100.00;99170.72;5076828;28;20081;-80
2023/04/01 00:50:56;;;;;;;212.63;23.08;;;;;;;8.07;100.00;99178.13;5069844;28;20398;-80
2023/04/01 00:53:22;;;;;;;205.43;21.25;;;;;;;8.06;100.00;99181.03;5083554;28;20066;-81
2023/04/01 00:55:58;;;;;;;187.63;20.60;;;;;;;8.03;100.00;99176.91;5079483;28;20158;-82
2023/04/01 00:58:24;;;;;;;211.98;24.85;;;;;;;8.03;100.00;99176.91;5080429;28;20023;-80
2023/04/01 01:00:50;;;;;;;186.68;22.38;;;;;;;8.06;100.00;99181.84;5078384;28;20028;-82
2023/04/01 01:03:16;;;;;;;184.98;19.90;;;;;;;8.05;100.00;99179.38;5077254;28;20032;-80
2023/04/01 01:06:03;;;;;;;157.30;21.25;;;;;;;8.06;100.00;99186.41;5080453;28;20079;-81
2023/04/01 01:08:30;;;;;;;217.45;22.55;;;;;;;8.05;100.00;99188.22;5080977;28;20378;-81
2023/04/01 01:10:55;;;;;;;205.43;22.80;;;;;;;8.03;100.00;99192.13;5081455;28;20104;-82
2023/04/01 01:13:36;;;;;;;202.85;23.52;;;;;;;8.00;100.00;99182.66;5080874;28;20050;-80
2023/04/01 01:16:11;;;;;;;185.80;20.55;;;;;;;8.01;100.00;99188.88;5073674;28;20028;-82
2023/04/01 01:19:03;;;;;;;184.75;21.80;;;;;;;8.00;100.00;99193.38;5066905;28;20029;-80
2023/04/01 01:21:46;;;;;;;166.93;20.08;;;;;;;8.02;100.00;99188.63;5071165;28;20040;-80
2023/04/01 01:24:30;;;;;;;167.20;23.52;;;;;;;8.05;100.00;99188.22;5080905;28;20036;-82
2023/04/01 01:26:55;;;;;;;130.48;16.77;;;;;;;8.04;100.00;99199.97;5061276;28;20045;-82
2023/04/01 01:29:38;;;;;;;116.75;18.30;;;;;;;8.04;100.00;99194.63;5057679;28;20330;-80
2023/04/01 01:32:25;;;;;;;136.15;17.73;;;;;;;8.02;100.00;99204.72;5071523;28;20082;-81
2023/04/01 01:35:05;;;;;;;131.57;16.60;;;;;;;8.03;100.00;99210.88;5088032;28;20047;-79
2023/04/01 01:37:32;;;;;;;155.27;19.13;;;;;;;8.05;100.00;99206.97;5080933;28;20039;-80
2023/04/01 01:40:02;;;;;;;138.15;15.80;;;;;;;8.05;100.00;99217.69;5083459;28;20707;-80
2023/04/01 01:42:29;;;;;;;151.15;17.00;;;;;;;8.05;100.00;99206.16;5092803;28;20401;-80
2023/04/01 01:44:56;;;;;;;122.90;17.02;;;;;;;8.04;100.00;99208.03;5091945;28;20037;-79
2023/04/01 01:47:22;;;;;;;127.10;15.95;;;;;;;8.05;100.00;99214.19;5089418;28;20078;-79
2023/04/01 01:49:48;;;;;;;132.57;16.38;;;;;;;8.03;100.00;99217.09;5090560;28;20028;-80
2023/04/01 01:52:16;;;;;;;122.65;13.55;;;;;;;8.04;100.00;99220.59;5100981;28;20080;-80
2023/04/01 01:54:54;;;;;;;128.85;16.05;;;;;;;8.04;100.00;99221.41;5085485;28;20029;-80
2023/04/01 01:57:24;;;;;;;112.90;16.33;;;;;;;8.03;100.00;99225.13;5086038;28;20081;-82
2023/04/01 01:59:52;;;;;;;90.10;13.35;;;;;;;8.04;100.00;99223.28;5079046;28;20047;-79
2023/04/01 02:02:18;;;;;;;58.03;11.00;;;;;;;8.06;100.00;99230.06;5080573;28;20056;-81
2023/04/01 02:04:44;;;;;;;78.07;13.45;;;;;;;8.04;100.00;99224.09;5079443;28;20028;-81
2023/04/01 02:07:18;;;;;;;77.78;12.65;;;;;;;8.07;100.00;99230.91;5081207;28;20025;-82
2023/04/01 02:09:44;;;;;;;99.80;15.40;;;;;;;8.09;100.00;99245.75;5070595;28;20086;-81
2023/04/01 02:12:11;;;;;;;75.55;15.23;;;;;;;8.08;100.00;99249.47;5080189;28;20025;-81
2023/04/01 02:14:39;;;;;;;87.47;15.07;;;;;;;8.11;100.00;99246.38;5081948;28;20043;-83
2023/04/01 02:17:18;;;;;;;83.90;16.42;;;;;;;8.07;100.00;99255.84;5082493;28;20469;-82
2023/04/01 02:19:53;;;;;;;82.82;14.98;;;;;;;8.07;100.00;99263.88;5092473;28;20089;-80
2023/04/01 02:22:22;;;;;;;96.00;18.25;;;;;;;8.10;100.00;99263.47;5085811;28;20063;-79
2023/04/01 02:24:49;;;;;;;81.63;18.23;;;;;;;8.09;100.00;99272.53;5086641;28;20118;-79
2023/04/01 02:27:15;;;;;;;85.78;18.92;;;;;;;8.11;100.00;99278.53;5101943;28;20059;-81
2023/04/01 02:29:40;;;;;;;87.38;17.38;;;;;;;8.11;100.00;99272.34;5091463;28;20028;-80
2023/04/01 02:32:06;;;;;;;89.68;20.30;;;;;;;8.14;100.00;99270.06;5088978;28;20040;-80
2023/04/01 02:34:32;;;;;;;92.72;20.25;;;;;;;8.13;100.00;99279.13;5086541;28;20052;-80
2023/04/01 02:36:58;;;;;;;95.03;21.10;;;;;;;8.16;100.00;99280.56;5092235;28;20043;-80
2023/04/01 02:39:25;;;;;;;107.68;22.45;;;;;;;8.18;100.00;99280.38;5093779;28;20048;-81
2023/04/01 02:41:50;;;;;;;92.70;22.30;;;;;;;8.22;100.00;99281.63;5092072;28;20056;-83
2023/04/01 02:44:16;;;;;;;104.55;23.33;;;;;;;8.24;100.00;99279.53;5085473;28;20060;-81
2023/04/01 02:46:42;;;;;;;112.82;22.48;;;;;;;8.25;100.00;99291.94;5084422;28;20024;-81
2023/04/01 02:49:07;;;;;;;112.85;22.73;;;;;;;8.25;100.00;99297.28;5101992;28;20032;-80
2023/04/01 02:51:33;;;;;;;138.02;24.02;;;;;;;8.25;100.00;99298.13;5067744;28;20039;-81
2023/04/01 02:53:58;;;;;;;132.00;22.63;;;;;;;8.28;100.00;99300.38;5078173;28;20025;-81
2023/04/01 02:56:25;;;;;;;124.95;25.35;;;;;;;8.28;100.00;99302.25;5084302;28;20036;-82
2023/04/01 02:58:51;;;;;;;130.38;23.92;;;;;;;8.31;100.00;99313.38;5079389;28;20040;-81
2023/04/01 03:01:16;;;;;;;120.78;26.55;;;;;;;8.31;100.00;99309.88;5068034;28;20021;-81
2023/04/01 03:03:42;;;;;;;127.95;23.95;;;;;;;8.33;100.00;99315.84;5079271;28;20032;-81
2023/04/01 03:06:09;;;;;;;138.57;25.50;;;;;;;8.35;100.00;99319.16;5084720;28;20033;-82
2023/04/01 03:08:34;;;;;;;108.23;21.97;;;;;;;8.33;100.00;99326.56;5084784;28;20024;-81
2023/04/01 03:11:00;;;;;;;138.10;23.83;;;;;;;8.31;100.00;99324.09;5086241;28;20036;-82
2023/04/01 03:13:25;;;;;;;117.32;22.27;;;;;;;8.33;100.00;99331.94;5073718;28;20024;-82
2023/04/01 03:15:51;;;;;;;141.88;24.17;;;;;;;8.31;100.00;99337.50;5068088;28;20029;-81
2023/04/01 03:18:16;;;;;;;129.23;23.13;;;;;;;8.31;100.00;99334.00;5085298;28;20025;-81
2023/04/01 03:20:42;;;;;;;143.98;24.67;;;;;;;8.30;100.00;99343.06;5086825;28;20051;-82
2023/04/01 03:23:08;;;;;;;113.68;20.83;;;;;;;8.30;100.00;99343.06;5086434;28;20472;-81
2023/04/01 03:25:33;;;;;;;119.35;22.35;;;;;;;8.33;100.00;99348.03;5075284;28;20025;-81
2023/04/01 03:27:59;;;;;;;109.15;21.25;;;;;;;8.34;100.00;99355.03;5066182;28;20040;-79
2023/04/01 03:30:25;;;;;;;126.72;21.42;;;;;;;8.37;100.00;99359.97;5073812;28;20028;-80
2023/04/01 03:32:51;;;;;;;150.90;22.75;;;;;;;8.37;100.00;99368.00;5085865;28;20028;-81
2023/04/01 03:35:16;;;;;;;133.95;23.45;;;;;;;8.33;100.00;99372.16;5085468;28;20043;-81
2023/04/01 03:37:41;;;;;;;124.15;20.42;;;;;;;8.31;100.00;99372.34;5069398;28;20037;-82
2023/04/01 03:40:07;;;;;;;131.70;21.10;;;;;;;8.32;100.00;99373.16;5066839;28;20036;-82
2023/04/01 03:42:33;;;;;;;115.38;20.35;;;;;;;8.33;100.00;99378.31;5075116;28;20021;-81
2023/04/01 03:44:58;;;;;;;109.15;19.20;;;;;;;8.30;100.00;99381.41;5089476;28;20133;-80
2023/04/01 03:47:24;;;;;;;115.05;20.05;;;;;;;8.33;100.00;99385.56;5087278;28;20055;-80
2023/04/01 03:49:49;;;;;;;100.88;18.15;;;;;;;8.31;100.00;99382.25;5090678;28;20063;-81
2023/04/01 03:52:14;;;;;;;103.30;18.63;;;;;;;8.31;100.00;99396.47;5087967;28;20016;-80
2023/04/01 03:54:40;;;;;;;112.03;19.30;;;;;;;8.31;100.00;99398.31;5094933;28;20036;-81
2023/04/01 03:57:06;;;;;;;115.43;20.33;;;;;;;8.30;100.00;99399.38;5078355;28;20083;-79
2023/04/01 03:59:31;;;;;;;120.50;19.77;;;;;;;8.31;100.00;99401.00;5067354;28;20017;-80
2023/04/01 04:01:56;;;;;;;115.53;20.50;;;;;;;8.31;100.00;99414.41;5086077;28;20036;-80
2023/04/01 04:04:22;;;;;;;111.80;20.60;;;;;;;8.33;100.00;99415.03;5085573;28;20039;-80
2023/04/01 04:06:47;;;;;;;120.47;19.90;;;;;;;8.31;100.00;99420.59;5081826;28;20101;-81
2023/04/01 04:09:18;;;;;;;109.18;19.73;;;;;;;8.31;100.00;99425.13;5083852;28;20089;-80
2023/04/01 04:11:45;;;;;;;106.55;21.02;;;;;;;8.31;100.00;99425.13;5082446;28;20040;-81
2023/04/01 04:14:11;;;;;;;104.75;20.45;;;;;;;8.31;100.00;99431.31;5082963;28;20040;-81
2023/04/01 04:16:37;;;;;;;105.78;21.52;;;;;;;8.34;100.00;99435.44;5079341;28;20043;-81
2023/04/01 04:19:03;;;;;;;104.60;21.50;;;;;;;8.32;100.00;99442.84;5083279;28;20054;-80
2023/04/01 04:21:29;;;;;;;91.38;20.20;;;;;;;8.33;100.00;99444.53;5083075;28;20024;-81
2023/04/01 04:23:54;;;;;;;115.45;21.35;;;;;;;8.30;100.00;99450.28;5082580;28;20020;-79
2023/04/01 04:26:20;;;;;;;99.15;20.85;;;;;;;8.24;100.00;99445.72;5081239;28;20024;-80
2023/04/01 04:28:45;;;;;;;86.82;20.98;;;;;;;8.28;100.00;99453.16;5083982;28;20032;-80
2023/04/01 04:31:11;;;;;;;95.20;21.40;;;;;;;8.29;100.00;99453.97;5082203;28;20028;-82
2023/04/01 04:33:36;;;;;;;98.47;21.00;;;;;;;8.29;100.00;99459.34;5084141;28;20048;-81
2023/04/01 04:36:03;;;;;;;110.93;23.00;;;;;;;8.25;100.00;99455.44;5069758;28;20484;-80
2023/04/01 04:38:28;;;;;;;103.50;23.08;;;;;;;8.23;100.00;99462.84;5077293;28;20391;-81
2023/04/01 04:40:54;;;;;;;90.38;21.67;;;;;;;8.23;100.00;99465.50;5082617;28;20070;-81
2023/04/01 04:43:20;;;;;;;82.07;20.98;;;;;;;8.21;100.00;99472.94;5075000;28;20456;-80
2023/04/01 04:45:45;;;;;;;97.47;22.20;;;;;;;8.19;100.00;99470.47;5077036;28;20036;-80
2023/04/01 04:48:19;;;;;;;97.43;24.13;;;;;;;8.19;100.00;99474.97;5081709;28;20385;-80
2023/04/01 04:50:47;;;;;;;104.88;22.25;;;;;;;8.19;100.00;99483.00;5083509;28;20084;-82
2023/04/01 04:53:12;;;;;;;106.57;22.25;;;;;;;8.21;100.00;99481.78;5082791;28;20054;-81
2023/04/01 04:55:45;;;;;;;112.65;23.58;;;;;;;8.13;100.00;99496.19;5080434;28;20518;-82
2023/04/01 04:58:11;;;;;;;127.13;24.63;;;;;;;8.13;100.00;99490.81;5066994;28;20102;-79
2023/04/01 05:00:36;;;;;;;106.63;23.40;;;;;;;8.12;100.00;99496.41;5081019;28;20032;-80
2023/04/01 05:03:02;;;;;;;111.65;24.77;;;;;;;8.18;100.00;99505.50;5091622;28;20062;-81
2023/04/01 05:05:27;;;;;;;104.55;22.73;;;;;;;8.14;100.00;99505.88;5083176;28;20033;-80
2023/04/01 05:07:53;;;;;;;97.45;22.02;;;;;;;8.12;100.00;99513.28;5083424;28;20127;-80
2023/04/01 05:10:20;;;;;;;101.18;24.45;;;;;;;8.10;100.00;99509.97;5085233;28;20040;-80
2023/04/01 05:12:45;;;;;;;103.13;23.05;;;;;;;8.10;100.00;99518.03;5083919;28;20032;-80
2023/04/01 05:15:11;;;;;;;104.78;22.17;;;;;;;8.11;100.00;99519.69;5079458;28;20044;-79
2023/04/01 05:17:36;;;;;;;106.18;23.67;;;;;;;8.07;100.00;99518.41;5084350;28;20297;-81
2023/04/01 05:20:02;;;;;;;114.65;23.35;;;;;;;8.09;100.00;99524.41;5082358;28;20381;-80
2023/04/01 05:22:27;;;;;;;103.18;23.30;;;;;;;8.09;100.00;99531.63;5070016;28;20037;-81
2023/04/01 05:24:53;;;;;;;104.97;25.08;;;;;;;8.11;100.00;99532.28;5081526;28;20059;-82
2023/04/01 05:27:18;;;;;;;89.60;22.88;;;;;;;8.11;100.00;99533.09;5081262;28;20052;-80
2023/04/01 05:29:43;;;;;;;100.57;20.48;;;;;;;8.14;100.00;99540.72;5067635;28;20051;-79
2023/04/01 05:32:09;;;;;;;106.22;24.00;;;;;;;8.16;100.00;99551.22;5074359;28;20032;-80
2023/04/01 05:34:34;;;;;;;77.20;20.58;;;;;;;8.17;100.00;99552.09;5084073;28;20031;-83
2023/04/01 05:36:59;;;;;;;96.25;24.48;;;;;;;8.18;100.00;99551.06;5085170;28;20042;-81
2023/04/01 05:39:25;;;;;;;93.63;23.10;;;;;;;8.13;100.00;99562.34;5085903;28;20024;-81
2023/04/01 05:41:50;;;;;;;98.32;25.13;;;;;;;8.09;100.00;99551.22;5085610;28;20029;-82
2023/04/01 05:44:16;;;;;;;97.55;22.02;;;;;;;8.13;100.00;99565.84;5077584;28;20599;-80
2023/04/01 05:46:41;;;;;;;94.38;26.27;;;;;;;8.09;100.00;99572.66;5084624;28;20032;-81
2023/04/01 05:49:07;;;;;;;110.00;24.85;;;;;;;8.06;100.00;99573.06;5086888;28;20063;-80
2023/04/01 05:51:32;;;;;;;102.47;24.90;;;;;;;8.06;100.00;99578.41;5076425;28;20040;-82
2023/04/01 05:53:58;;;;;;;96.05;27.38;;;;;;;8.05;100.00;99575.91;5067925;28;20128;-81
2023/04/01 05:56:23;;;;;;;110.25;29.02;;;;;;;8.07;100.00;99582.72;5082127;28;20032;-80
2023/04/01 05:58:51;;;;;;;119.80;29.92;;;;;;;8.04;100.00;99583.13;5081243;28;20084;-80
2023/04/01 06:01:18;;;;;;;98.57;26.00;;;;;;;8.07;100.00;99590.78;5072484;28;20032;-82
2023/04/01 06:03:44;;;;;;;94.25;24.00;;;;;;;8.02;100.00;99590.53;5078771;28;20786;-82
2023/04/01 06:06:23;;;;;;;84.03;24.20;;;;;;;7.98;100.00;99602.69;5071701;28;20040;-80
2023/04/01 06:08:49;;;;;;;89.47;22.35;;;;;;;7.98;100.00;99617.91;5077155;28;20059;-80
2023/04/01 06:11:35;;;;;;;91.18;23.35;;;;;;;8.00;100.00;99622.03;5078736;28;20020;-79
2023/04/01 06:14:56;;;;;;;91.45;24.02;;;;;;;8.05;100.00;99624.16;5079855;28;20043;-78
2023/04/01 06:17:52;;;;;;;92.85;25.77;;;;;;;8.07;100.00;99627.47;5060463;28;20075;-81
2023/04/01 06:20:52;;;;;;;101.18;22.98;;;;;;;8.01;100.00;99634.44;5066346;28;20009;-81
2023/04/01 06:23:29;;;;;;;101.07;25.50;;;;;;;8.06;100.00;99631.19;5079146;28;20025;-80
2023/04/01 06:26:12;;;;;;;98.43;29.55;;;;;;;8.09;100.00;99645.00;5086365;28;20036;-81
2023/04/01 06:28:50;;;;;;;102.00;28.65;;;;;;;8.11;100.00;99647.50;5077784;28;20093;-81
2023/04/01 06:31:19;;;;;;;;;;;;;;;8.11;100.00;99651.00;5069529;28;20033;-80
2023/04/01 06:33:44;;;;;;;100.80;26.58;;;;;;;8.14;100.00;99655.97;5068735;28;19913;-79
2023/04/01 06:36:25;;;;;;;85.40;27.65;;;;;;;8.14;100.00;99655.16;5069679;28;20437;-79
2023/04/01 06:39:00;;;;;;;94.85;25.08;;;;;;;8.16;100.00;99658.44;5073454;28;20043;-80
2023/04/01 06:41:47;;;;;;;80.63;25.48;;;;;;;8.19;100.00;99667.94;5070013;28;20036;-80
2023/04/01 06:44:25;;;;;;;86.10;25.42;;;;;;;8.20;100.00;99672.28;5068026;28;20044;-80
2023/04/01 06:47:09;;;;;;;52.63;17.75;;;;;;;8.20;100.00;99666.94;5082997;28;20042;-79
2023/04/01 06:49:57;;;;;;;69.03;21.15;;;;;;;8.26;100.00;99679.53;5085661;28;20021;-81
2023/04/01 06:52:53;;;;;;;56.90;20.00;;;;;;;8.31;100.00;99677.09;5064617;28;20025;-80
2023/04/01 06:55:37;;;;;;;55.58;18.42;;;;;;;8.33;100.00;99672.38;5077030;28;20392;-81
2023/04/01 06:58:04;;;;;;;46.67;16.63;;;;;;;8.31;100.00;99672.56;5075870;28;20475;-80
2023/04/01 07:00:32;;;;;;;43.08;15.38;;;;;;;8.30;100.00;99676.28;5064752;28;20063;-82
2023/04/01 07:03:13;;;;;;;;;;;;;;;8.30;100.00;99678.13;5065561;28;20025;-82
2023/04/01 07:05:39;;;;;;;38.35;13.88;;;;;;;8.33;100.00;99685.78;5066562;28;19913;-81
2023/04/01 07:08:06;;;;;;;33.15;11.48;;;;;;;8.35;100.00;99694.47;5065564;28;20059;-80
2023/04/01 07:10:58;;;;;;;31.75;12.65;;;;;;;8.34;100.00;99687.44;5064697;28;20103;-81
2023/04/01 07:13:41;;;;;;;30.13;11.85;;;;;;;8.35;100.00;99694.47;5064589;28;20021;-81
2023/04/01 07:16:42;;;;;;;32.92;12.38;;;;;;;8.35;100.00;99691.78;5064987;28;20017;-82
2023/04/01 07:19:24;;;;;;;49.10;12.90;;;;;;;8.30;100.00;99696.91;5048882;28;20107;-82
2023/04/01 07:22:03;;;;;;;45.78;14.73;;;;;;;8.35;100.00;99707.88;5067756;28;20067;-80
2023/04/01 07:24:37;;;;;;;57.90;14.82;;;;;;;8.40;100.00;99701.94;5051383;28;20127;-81
2023/04/01 07:27:05;;;;;;;60.13;15.65;;;;;;;8.45;100.00;99711.06;5068579;28;20078;-81
2023/04/01 07:29:31;;;;;;;63.70;15.98;;;;;;;8.43;100.00;99713.13;5069689;28;20028;-80
2023/04/01 07:32:27;;;;;;;60.58;15.70;;;;;;;8.39;100.00;99719.88;5070627;28;20028;-81
2023/04/01 07:35:17;;;;;;;63.20;17.00;;;;;;;8.37;100.00;99716.53;5069513;28;20025;-81
2023/04/01 07:37:50;;;;;;;66.40;15.05;;;;;;;8.31;100.00;99722.69;5069433;28;20369;-82
2023/04/01 07:40:54;;;;;;;72.32;17.13;;;;;;;8.34;100.00;99733.00;5069082;28;20033;-81
2023/04/01 07:44:01;;;;;;;63.55;18.27;;;;;;;8.35;100.00;99737.38;5070540;28;20037;-81
2023/04/01 07:47:05;;;;;;;67.80;17.05;;;;;;;8.34;100.00;99733.00;4997165;28;20010;-81
2023/04/01 07:49:45;;;;;;;78.43;17.00;;;;;;;8.33;100.00;99745.59;5003547;28;20211;-82
2023/04/01 07:52:36;;;;;;;72.60;16.33;;;;;;;8.36;100.00;99739.00;5065829;28;20064;-81
2023/04/01 07:55:28;;;;;;;78.30;17.45;;;;;;;8.38;100.00;99747.69;5075666;28;20016;-80
2023/04/01 07:58:18;;;;;;;87.38;18.88;;;;;;;8.37;100.00;99748.69;5072972;28;20040;-81
2023/04/01 08:01:03;;;;;;;91.57;19.52;;;;;;;8.44;100.00;99754.97;5074494;28;20065;-80
2023/04/01 08:03:53;;;;;;;90.18;20.42;;;;;;;8.52;100.00;99759.38;5089561;28;20122;-81
2023/04/01 08:06:29;;;;;;;88.22;19.83;;;;;;;8.49;100.00;99762.44;5089645;28;20039;-81
2023/04/01 08:09:09;;;;;;;106.53;21.65;;;;;;;8.54;100.00;99760.84;5090539;28;20028;-79
2023/04/01 08:11:44;;;;;;;102.38;22.17;;;;;;;8.60;100.00;99761.91;5089605;28;20031;-81
2023/04/01 08:14:19;;;;;;;123.55;24.70;;;;;;;8.61;100.00;99774.31;5088838;28;20035;-82
2023/04/01 08:17:03;;;;;;;107.32;23.25;;;;;;;8.60;100.00;99777.16;5090161;28;20240;-82
2023/04/01 08:19:44;;;;;;;126.53;23.67;;;;;;;8.56;100.00;99785.63;5088802;28;20020;-82
2023/04/01 08:22:17;;;;;;;90.43;22.02;;;;;;;8.56;100.00;99788.28;5089710;28;20037;-81
2023/04/01 08:24:45;;;;;;;96.82;21.88;;;;;;;8.61;100.00;99789.53;5089478;28;20104;-80
2023/04/01 08:27:45;;;;;;;100.38;24.00;;;;;;;8.59;100.00;99783.56;5092560;28;20079;-81
2023/04/01 08:30:20;;;;;;;85.35;18.77;;;;;;;8.60;100.00;99791.41;5092146;28;20036;-80
2023/04/01 08:32:58;;;;;;;73.88;20.17;;;;;;;8.67;100.00;99794.16;5092570;28;20059;-82
2023/04/01 08:35:26;;;;;;;79.80;18.92;;;;;;;8.76;100.00;99801.84;5090852;28;20059;-81
2023/04/01 08:37:53;;;;;;;89.78;19.05;;;;;;;8.85;100.00;99791.81;5074485;28;20025;-82
2023/04/01 08:40:37;;;;;;;87.32;18.38;;;;;;;8.79;100.00;99797.94;5070730;28;20067;-81
2023/04/01 08:43:16;;;;;;;86.28;19.80;;;;;;;8.81;100.00;99811.16;5074024;28;20017;-81
2023/04/01 08:45:45;;;;;;;85.40;21.08;;;;;;;8.88;100.00;99806.69;5070231;28;20037;-81
2023/04/01 08:48:29;;;;;;;76.35;20.77;;;;;;;8.89;100.00;99814.50;5071612;28;20028;-81
2023/04/01 08:51:07;;;;;;;66.93;19.00;;;;;;;8.88;100.00;99817.41;5069895;28;20021;-82
2023/04/01 08:53:36;;;;;;;71.68;19.55;;;;;;;8.87;100.00;99816.56;5069177;28;20031;-81
2023/04/01 08:56:26;;;;;;;86.40;21.27;;;;;;;8.88;100.00;99828.16;5068731;28;20033;-83
2023/04/01 08:59:10;;;;;;;76.03;21.15;;;;;;;8.77;100.00;99827.66;5075129;28;20061;-82
2023/04/01 09:02:13;;;;;;;84.57;21.42;;;;;;;8.75;100.00;99834.25;5089410;28;20024;-83
2023/04/01 09:04:59;;;;;;;98.20;22.23;;;;;;;8.82;100.00;99832.44;5079019;28;20045;-83
2023/04/01 09:07:54;;;;;;;95.70;21.80;;;;;;;8.81;100.00;99828.09;5070329;28;20029;-83
2023/04/01 09:10:56;;;;;;;94.75;22.63;;;;;;;8.79;100.00;99827.44;5047554;28;20037;-83
2023/04/01 09:13:48;;;;;;;99.90;24.15;;;;;;;8.85;100.00;99837.41;5071081;28;20037;-81
2023/04/01 09:16:31;;;;;;;113.43;24.27;;;;;;;8.84;100.00;99832.22;5070292;28;20095;-83
2023/04/01 09:19:15;;;;;;;92.05;22.02;;;;;;;8.84;100.00;99849.16;5072598;28;20029;-83
2023/04/01 09:22:02;;;;;;;99.80;22.73;;;;;;;8.90;100.00;99853.75;5072599;28;20059;-81
2023/04/01 09:24:41;;;;;;;111.72;23.13;;;;;;;8.91;100.00;99846.53;5072498;28;20029;-81
2023/04/01 09:27:51;;;;;;;93.50;21.75;;;;;;;8.90;100.00;99852.91;5072323;28;20064;-82
2023/04/01 09:31:01;;;;;;;75.28;18.17;;;;;;;8.95;100.00;99862.06;5080807;28;20032;-83
2023/04/01 09:33:38;;;;;;;82.05;20.67;;;;;;;8.90;100.00;99859.13;5076695;28;20044;-82
2023/04/01 09:36:21;;;;;;;78.05;18.00;;;;;;;8.92;100.00;99865.09;5089791;28;20028;-82
2023/04/01 09:38:56;;;;;;;56.70;16.50;;;;;;;8.86;100.00;99868.56;5087788;28;20032;-81
2023/04/01 09:41:33;;;;;;;67.40;17.15;;;;;;;8.91;100.00;99860.78;5089351;28;20035;-84
2023/04/01 09:44:01;;;;;;;51.22;14.20;;;;;;;8.96;100.00;99866.38;5083000;28;20074;-81
2023/04/01 09:46:37;;;;;;;43.25;13.48;;;;;;;8.92;100.00;99867.78;5080218;28;20029;-81
2023/04/01 09:49:09;;;;;;;53.13;13.88;;;;;;;9.01;100.00;99872.00;5081421;28;20366;-80
2023/04/01 09:51:54;;;;;;;67.57;16.27;;;;;;;9.08;100.00;99873.88;5084102;28;20017;-82
2023/04/01 09:54:53;;;;;;;75.20;17.35;;;;;;;9.13;100.00;99876.81;5086062;28;20028;-81
2023/04/01 09:57:46;;;;;;;75.82;19.38;;;;;;;9.15;100.00;99877.47;5052752;28;20055;-82
2023/04/01 10:00:32;;;;;;;67.82;16.80;;;;;;;9.19;100.00;99884.09;5082182;28;20032;-82
2023/04/01 10:03:35;;;;;;;68.60;16.85;;;;;;;9.27;100.00;99886.63;5063739;28;20055;-81
2023/04/01 10:06:03;;;;;;;68.05;16.58;;;;;;;9.33;100.00;99893.91;5085632;28;20055;-82
2023/04/01 10:08:31;;;;;;;82.05;17.63;;;;;;;9.41;100.00;99896.41;5084802;28;20024;-80
2023/04/01 10:11:21;;;;;;;70.18;16.58;;;;;;;9.44;100.00;99896.03;5086979;28;20029;-82
2023/04/01 10:14:04;;;;;;;66.10;16.50;;;;;;;9.50;100.00;99901.63;5085250;28;20075;-81
2023/04/01 10:16:54;;;;;;;49.22;14.00;;;;;;;9.52;100.00;99905.78;5081777;28;20037;-83
2023/04/01 10:19:34;;;;;;;51.58;12.57;;;;;;;9.59;100.00;99911.19;5064338;28;20074;-81
2023/04/01 10:22:18;;;;;;;56.35;13.93;;;;;;;9.57;100.00;99913.25;5092617;28;20036;-82
2023/04/01 10:25:13;;;;;;;76.10;17.13;;;;;;;9.53;100.00;99912.81;5088623;28;20032;-82
2023/04/01 10:27:47;;;;;;;64.95;17.52;;;;;;;9.44;100.00;99917.50;5087073;28;20041;-82
2023/04/01 10:30:18;;;;;;;68.43;17.08;;;;;;;9.42;100.00;99918.72;5077631;28;20037;-82
2023/04/01 10:33:20;;;;;;;71.82;16.95;;;;;;;9.42;100.00;99916.84;5086001;28;20020;-82
2023/04/01 10:36:04;;;;;;;76.07;18.95;;;;;;;9.43;100.00;99918.53;5068852;28;20029;-82
2023/04/01 10:39:04;;;;;;;85.55;21.42;;;;;;;9.54;100.00;99913.66;5082110;28;20036;-82
2023/04/01 10:41:59;;;;;;;73.72;19.75;;;;;;;9.56;100.00;99933.09;5055037;28;20055;-81
2023/04/01 10:44:47;;;;;;;74.63;19.02;;;;;;;9.61;100.00;99922.56;5081755;28;20032;-81
2023/04/01 10:47:27;;;;;;;69.55;17.75;;;;;;;9.69;100.00;99922.41;5075051;28;20025;-82
2023/04/01 10:50:21;;;;;;;77.00;17.98;;;;;;;9.59;100.00;99927.31;5076082;28;20200;-82
2023/04/01 10:53:26;;;;;;;71.68;18.85;;;;;;;9.53;100.00;99928.09;5089258;28;20021;-82
2023/04/01 10:56:10;;;;;;;79.28;18.95;;;;;;;9.54;100.00;99930.59;5089748;28;20029;-80
2023/04/01 10:58:47;;;;;;;77.82;19.23;;;;;;;9.51;100.00;99935.53;5092889;28;20050;-83
2023/04/01 11:01:50;;;;;;;90.55;20.40;;;;;;;9.43;100.00;99934.66;5092208;28;20029;-81
2023/04/01 11:04:40;;;;;;;91.68;20.05;;;;;;;9.48;100.00;99930.53;5077341;28;20028;-80
2023/04/01 11:07:51;;;;;;;94.10;21.40;;;;;;;9.48;100.00;99938.59;5092012;28;20051;-82
2023/04/01 11:10:54;;;;;;;93.18;20.58;;;;;;;9.45;100.00;99937.97;5059606;28;20068;-82
2023/04/01 11:13:44;;;;;;;96.07;20.33;;;;;;;9.57;100.00;99946.31;5087738;28;20044;-81
2023/04/01 11:16:34;;;;;;;104.70;21.83;;;;;;;9.54;100.00;99945.88;5112003;28;20032;-82
2023/04/01 11:19:09;;;;;;;108.72;20.27;;;;;;;9.57;100.00;99950.84;5101163;28;20050;-81
2023/04/01 11:22:20;;;;;;;102.18;20.77;;;;;;;9.48;100.00;99952.03;5093234;28;20020;-81
2023/04/01 11:25:08;;;;;;;108.90;22.75;;;;;;;9.59;100.00;99956.88;5010577;28;20044;-82
2023/04/01 11:27:59;;;;;;;106.20;21.98;;;;;;;9.59;100.00;99959.56;5111760;28;20093;-82
2023/04/01 11:30:59;;;;;;;94.03;20.55;;;;;;;9.59;100.00;99960.38;5080968;28;20032;-83
2023/04/01 11:33:35;;;;;;;98.22;22.80;;;;;;;9.59;100.00;99971.13;5074348;28;20035;-82
2023/04/01 11:36:25;;;;;;;92.43;21.55;;;;;;;9.58;100.00;99976.69;5078501;28;20025;-82
2023/04/01 11:39:01;;;;;;;78.78;19.15;;;;;;;9.67;100.00;99980.88;5087068;28;20104;-82
2023/04/01 11:41:59;;;;;;;88.70;18.92;;;;;;;9.77;100.00;99977.81;5079285;28;20030;-83
2023/04/01 11:44:27;;;;;;;79.50;18.23;;;;;;;9.85;100.00;99983.06;5068740;28;20085;-82
2023/04/01 11:47:20;;;;;;;80.20;19.15;;;;;;;9.94;100.00;99986.41;5073253;28;20523;-82
2023/04/01 11:49:57;;;;;;;84.05;21.17;;;;;;;10.02;100.00;99992.44;5104230;28;20042;-81
2023/04/01 11:52:51;;;;;;;88.88;22.92;;;;;;;10.13;100.00;99988.34;5089981;28;20032;-81